Belle Valley, OH (43717)

10:56 AM EDT on August 25, 2016 (GMT -0400)
APRSWXNET | | Change Station
Active Advisory: Special Statement

Elev 941 ft 39.90 °N, 81.50 °W | Updated 31 minutes ago

Overcast
Overcast
78 °F
Feels Like 80 °F
N
1
Wind Variable Wind from WNW
Gusts 4.0 mph

Today
High -- | Low -- °F
--% Chance of Precip.
Yesterday
High -- | Low -- °F
Precip. -- in
Pressure 30.05 in
Visibility 10.0 miles
Clouds Overcast 1200 ft
Heat Index 80 °F
Dew Point 74 °F
Humidity 88%
Rainfall in
Snow Depth Not available.
6:48 AM 8:07 PM
Last Quarter, 45% visible
METAR KZZV 251453Z AUTO 25005KT 10SM OVC012 27/24 A3008 RMK AO2 SLP176 T02670239 58002
Pressure 30.05 in
Visibility 10.0 miles
Clouds Overcast 1200 ft
Heat Index 80 °F
Dew Point 74 °F
Humidity 88%
Rainfall in
Snow Depth Not available.
6:48 AM 8:07 PM
Last Quarter, 45% visible
METAR KZZV 251453Z AUTO 25005KT 10SM OVC012 27/24 A3008 RMK AO2 SLP176 T02670239 58002

10-Day Weather Forecast

Almanac

Astronomy

Aug. 25, 2016 Rise Set
Actual Time
Civil Twilight
Nautical Twilight
Astronomical Twilight
Moon
Length of Visible Light
Length of Day
Tomorrow will be .
, % of the Moon is Illuminated

Today's Extremes

State Highs State Lows

Community

WunderPhotos

Upload Photos

1,934,850 photos uploaded!

WunderBlog® & News

Nearby

Air Quality

  Air Quality AQ Index Pollutant
Not available.

Snow Depth

Station Depth Elevation

Earthquake Activity

City Distance Mag. Time & Date
Minimum magnitude displayed is 2.5.

Coastal Water Temperatures

Place Temperature

Stations

Nearby Weather Stations

Station Location Temp. Windchill Dew Point Humidity Wind Precip. Elev Updated Type
                   

Watches & Warnings

Special Statement
Issued: 9:52 AM EDT Aug. 25, 2016 – National Weather Service

... Heat index values will approach 100 degrees today...

A combination of high temperatures in the lower 90s and dewpoints
surging into the mid 70s will cause heat index values to approach
100 degrees this afternoon. Extra precaution should be taken to
care for those susceptible to heat related illnesses.



952 am EDT Thu Aug 25 2016

... Heat index values will approach 100 degrees today...

A combination of high temperatures in the lower 90s and dewpoints
surging into the mid 70s will cause heat index values to approach
100 degrees this afternoon. Extra precaution should be taken to
care for those susceptible to heat related illnesses.